Red Elm, South Dakota
Current Conditions -  °F | °C
As of 10:55 AM on Friday 24 Oct 2014 (Local Time) from KPHP Reporting Station
Clear Clear  
Wind Chill: 63°   Ceiling: Unl
Heat Index: 63°   Visibility: 10mi
Dew Point: 41°   Wind: 3mph
Humidity: 45%   Direction: NA
Pressure: 29.96"   Gusts: NA
Location:  45.0029°N, 101.639°W
Report Text: KPHP 241655Z AUTO VRB03KT 10SM CLR 17/05 A2996 RMK AO2 SLP145 T01720050
Loading
Personal Weather Stations






























Interactive Weather Map New forecast layout! Learn more

10-Day Weather Forecast

Advertisements
Track Severe Weather on mobile